Terminal Aerodrome Forecast
Issued by NWS Burlington, VT

Home | Current Version | Previous Version | Text Only | Print | Product List | Glossary On
Versions: 1 2 3 4 5 6 7 8 9 10 11 12 13 14 15 16
000
FTUS41 KBTV 250520
TAFBTV
TAF
KBTV 250520Z 2506/2606 14005KT P6SM BKN070
     FM251400 13012G22KT P6SM OVC110
     FM251600 12013G22KT 6SM -RA BR OVC060
     FM252200 10006KT P6SM VCSH OVC040
     FM260500 34004KT P6SM VCSH OVC025=

USA.gov is the U.S. government's official web portal to all federal, state and local government web resources and services.